sensor_id;sensor_type;location;lat;lon;timestamp;temperature;humidity
21801;DHT22;11062;51.164;16.924;2023-02-28T00:00:11;27.10;28.30
21801;DHT22;11062;51.164;16.924;2023-02-28T00:02:42;27.10;28.20
21801;DHT22;11062;51.164;16.924;2023-02-28T00:05:10;27.20;28.30
21801;DHT22;11062;51.164;16.924;2023-02-28T00:07:36;27.10;28.30
21801;DHT22;11062;51.164;16.924;2023-02-28T00:10:04;27.10;28.30
21801;DHT22;11062;51.164;16.924;2023-02-28T00:12:32;27.20;28.30
21801;DHT22;11062;51.164;16.924;2023-02-28T00:14:58;27.20;28.30
21801;DHT22;11062;51.164;16.924;2023-02-28T00:17:26;27.20;28.30
21801;DHT22;11062;51.164;16.924;2023-02-28T00:19:52;27.10;28.40
21801;DHT22;11062;51.164;16.924;2023-02-28T00:22:21;27.10;28.40
21801;DHT22;11062;51.164;16.924;2023-02-28T00:24:47;27.10;28.40
21801;DHT22;11062;51.164;16.924;2023-02-28T00:27:14;27.20;28.60
21801;DHT22;11062;51.164;16.924;2023-02-28T00:29:40;27.20;28.50
21801;DHT22;11062;51.164;16.924;2023-02-28T00:32:08;27.20;28.50
21801;DHT22;11062;51.164;16.924;2023-02-28T00:34:39;27.20;28.50
21801;DHT22;11062;51.164;16.924;2023-02-28T00:37:07;27.20;28.50
21801;DHT22;11062;51.164;16.924;2023-02-28T00:39:34;27.20;28.40
21801;DHT22;11062;51.164;16.924;2023-02-28T00:42:01;27.20;28.50
21801;DHT22;11062;51.164;16.924;2023-02-28T00:44:28;27.20;29.00
21801;DHT22;11062;51.164;16.924;2023-02-28T00:46:57;27.20;29.10
21801;DHT22;11062;51.164;16.924;2023-02-28T00:49:23;27.20;28.80
21801;DHT22;11062;51.164;16.924;2023-02-28T00:51:54;27.20;28.40
21801;DHT22;11062;51.164;16.924;2023-02-28T00:54:26;27.20;28.30
21801;DHT22;11062;51.164;16.924;2023-02-28T00:56:54;27.30;28.40
21801;DHT22;11062;51.164;16.924;2023-02-28T00:59:20;27.30;28.40
21801;DHT22;11062;51.164;16.924;2023-02-28T01:01:47;27.30;28.50
21801;DHT22;11062;51.164;16.924;2023-02-28T01:04:14;27.30;28.50
21801;DHT22;11062;51.164;16.924;2023-02-28T01:06:40;27.30;28.40
21801;DHT22;11062;51.164;16.924;2023-02-28T01:09:07;27.30;28.40
21801;DHT22;11062;51.164;16.924;2023-02-28T01:11:34;27.30;28.50
21801;DHT22;11062;51.164;16.924;2023-02-28T01:14:00;27.20;28.50
21801;DHT22;11062;51.164;16.924;2023-02-28T01:16:26;27.20;28.60
21801;DHT22;11062;51.164;16.924;2023-02-28T01:18:52;27.20;28.50
21801;DHT22;11062;51.164;16.924;2023-02-28T01:21:20;27.20;28.50
21801;DHT22;11062;51.164;16.924;2023-02-28T01:23:47;27.30;28.60
21801;DHT22;11062;51.164;16.924;2023-02-28T01:26:22;27.20;28.60
21801;DHT22;11062;51.164;16.924;2023-02-28T01:28:49;27.30;28.60
21801;DHT22;11062;51.164;16.924;2023-02-28T01:31:17;27.20;28.50
21801;DHT22;11062;51.164;16.924;2023-02-28T01:33:43;27.30;28.60
21801;DHT22;11062;51.164;16.924;2023-02-28T01:36:13;27.30;28.50
21801;DHT22;11062;51.164;16.924;2023-02-28T01:38:43;27.30;28.50
21801;DHT22;11062;51.164;16.924;2023-02-28T01:41:15;27.30;28.50
21801;DHT22;11062;51.164;16.924;2023-02-28T01:46:14;27.30;28.40
21801;DHT22;11062;51.164;16.924;2023-02-28T01:49:04;27.30;28.60
21801;DHT22;11062;51.164;16.924;2023-02-28T01:51:44;27.40;28.50
21801;DHT22;11062;51.164;16.924;2023-02-28T01:54:16;27.40;28.60
21801;DHT22;11062;51.164;16.924;2023-02-28T01:56:49;27.40;28.60
21801;DHT22;11062;51.164;16.924;2023-02-28T01:59:32;27.40;28.50
21801;DHT22;11062;51.164;16.924;2023-02-28T02:02:00;27.40;28.60
21801;DHT22;11062;51.164;16.924;2023-02-28T02:04:32;27.30;28.60
21801;DHT22;11062;51.164;16.924;2023-02-28T02:07:00;27.40;28.50
21801;DHT22;11062;51.164;16.924;2023-02-28T02:09:26;27.40;28.60
21801;DHT22;11062;51.164;16.924;2023-02-28T02:11:52;27.30;28.50
21801;DHT22;11062;51.164;16.924;2023-02-28T02:14:48;27.40;28.50
21801;DHT22;11062;51.164;16.924;2023-02-28T02:17:39;27.40;28.60
21801;DHT22;11062;51.164;16.924;2023-02-28T02:20:46;27.30;28.60
21801;DHT22;11062;51.164;16.924;2023-02-28T02:23:25;27.30;28.60
21801;DHT22;11062;51.164;16.924;2023-02-28T02:26:03;27.20;28.70
21801;DHT22;11062;51.164;16.924;2023-02-28T02:28:56;27.20;28.70
21801;DHT22;11062;51.164;16.924;2023-02-28T02:34:46;27.10;28.70
21801;DHT22;11062;51.164;16.924;2023-02-28T02:37:31;27.20;28.80
21801;DHT22;11062;51.164;16.924;2023-02-28T02:42:45;27.20;28.70
21801;DHT22;11062;51.164;16.924;2023-02-28T02:45:27;27.20;28.70
21801;DHT22;11062;51.164;16.924;2023-02-28T02:47:57;27.20;28.70
21801;DHT22;11062;51.164;16.924;2023-02-28T02:50:30;27.30;28.70
21801;DHT22;11062;51.164;16.924;2023-02-28T02:53:00;27.30;28.60
21801;DHT22;11062;51.164;16.924;2023-02-28T02:55:27;27.30;28.60
21801;DHT22;11062;51.164;16.924;2023-02-28T02:57:59;27.30;28.60
21801;DHT22;11062;51.164;16.924;2023-02-28T03:00:31;27.40;28.60
21801;DHT22;11062;51.164;16.924;2023-02-28T03:03:02;27.40;28.60
21801;DHT22;11062;51.164;16.924;2023-02-28T03:05:50;27.40;28.70
21801;DHT22;11062;51.164;16.924;2023-02-28T03:08:16;27.50;28.60
21801;DHT22;11062;51.164;16.924;2023-02-28T03:10:45;27.40;28.60
21801;DHT22;11062;51.164;16.924;2023-02-28T03:16:28;27.50;28.50
21801;DHT22;11062;51.164;16.924;2023-02-28T03:19:15;27.50;28.50
21801;DHT22;11062;51.164;16.924;2023-02-28T03:22:12;27.50;28.50
21801;DHT22;11062;51.164;16.924;2023-02-28T03:24:49;27.50;28.60
21801;DHT22;11062;51.164;16.924;2023-02-28T03:30:38;27.60;28.60
21801;DHT22;11062;51.164;16.924;2023-02-28T03:33:10;27.50;28.40
21801;DHT22;11062;51.164;16.924;2023-02-28T03:35:45;27.50;28.60
21801;DHT22;11062;51.164;16.924;2023-02-28T03:38:29;27.50;28.60
21801;DHT22;11062;51.164;16.924;2023-02-28T03:41:21;27.50;28.60
21801;DHT22;11062;51.164;16.924;2023-02-28T03:43:55;27.50;28.60
21801;DHT22;11062;51.164;16.924;2023-02-28T03:46:26;27.40;28.50
21801;DHT22;11062;51.164;16.924;2023-02-28T03:49:08;27.40;28.60
21801;DHT22;11062;51.164;16.924;2023-02-28T03:51:41;27.50;28.60
21801;DHT22;11062;51.164;16.924;2023-02-28T03:54:13;27.40;28.50
21801;DHT22;11062;51.164;16.924;2023-02-28T03:57:03;27.50;28.50
21801;DHT22;11062;51.164;16.924;2023-02-28T04:00:04;27.50;28.50
21801;DHT22;11062;51.164;16.924;2023-02-28T04:02:32;27.50;28.50
21801;DHT22;11062;51.164;16.924;2023-02-28T04:05:00;27.50;28.60
21801;DHT22;11062;51.164;16.924;2023-02-28T04:07:29;27.50;28.60
21801;DHT22;11062;51.164;16.924;2023-02-28T04:09:56;27.50;28.60
21801;DHT22;11062;51.164;16.924;2023-02-28T04:12:29;27.40;28.50
21801;DHT22;11062;51.164;16.924;2023-02-28T04:15:07;27.50;28.60
21801;DHT22;11062;51.164;16.924;2023-02-28T04:17:33;27.50;28.60
21801;DHT22;11062;51.164;16.924;2023-02-28T04:20:03;27.50;28.60
21801;DHT22;11062;51.164;16.924;2023-02-28T04:22:44;27.40;28.50
21801;DHT22;11062;51.164;16.924;2023-02-28T04:25:17;27.40;28.60
21801;DHT22;11062;51.164;16.924;2023-02-28T04:27:45;27.40;28.60
21801;DHT22;11062;51.164;16.924;2023-02-28T04:30:19;27.40;28.60
21801;DHT22;11062;51.164;16.924;2023-02-28T04:32:59;27.40;28.60
21801;DHT22;11062;51.164;16.924;2023-02-28T04:35:30;27.40;28.60
21801;DHT22;11062;51.164;16.924;2023-02-28T04:37:59;27.30;28.60
21801;DHT22;11062;51.164;16.924;2023-02-28T04:40:27;27.10;28.70
21801;DHT22;11062;51.164;16.924;2023-02-28T04:42:57;27.20;28.80
21801;DHT22;11062;51.164;16.924;2023-02-28T04:45:23;27.10;28.80
21801;DHT22;11062;51.164;16.924;2023-02-28T04:47:50;27.10;28.80
21801;DHT22;11062;51.164;16.924;2023-02-28T04:50:19;27.10;28.70
21801;DHT22;11062;51.164;16.924;2023-02-28T04:52:45;27.20;28.80
21801;DHT22;11062;51.164;16.924;2023-02-28T04:55:11;27.20;28.60
21801;DHT22;11062;51.164;16.924;2023-02-28T04:57:37;27.20;28.50
21801;DHT22;11062;51.164;16.924;2023-02-28T05:00:03;27.20;28.50
21801;DHT22;11062;51.164;16.924;2023-02-28T05:02:35;27.20;28.40
21801;DHT22;11062;51.164;16.924;2023-02-28T05:05:01;27.30;28.60
21801;DHT22;11062;51.164;16.924;2023-02-28T05:07:27;27.30;28.50
21801;DHT22;11062;51.164;16.924;2023-02-28T05:09:53;27.30;28.60
21801;DHT22;11062;51.164;16.924;2023-02-28T05:12:19;27.40;28.60
21801;DHT22;11062;51.164;16.924;2023-02-28T05:14:45;27.30;28.30
21801;DHT22;11062;51.164;16.924;2023-02-28T05:17:11;27.30;28.30
21801;DHT22;11062;51.164;16.924;2023-02-28T05:19:37;27.40;28.40
21801;DHT22;11062;51.164;16.924;2023-02-28T05:22:03;27.40;28.50
21801;DHT22;11062;51.164;16.924;2023-02-28T05:24:30;27.40;28.60
21801;DHT22;11062;51.164;16.924;2023-02-28T05:26:56;27.30;28.50
21801;DHT22;11062;51.164;16.924;2023-02-28T05:29:22;27.30;28.40
21801;DHT22;11062;51.164;16.924;2023-02-28T05:31:48;27.30;28.40
21801;DHT22;11062;51.164;16.924;2023-02-28T05:34:14;27.30;28.40
21801;DHT22;11062;51.164;16.924;2023-02-28T05:36:41;27.30;28.40
21801;DHT22;11062;51.164;16.924;2023-02-28T05:39:07;27.30;28.30
21801;DHT22;11062;51.164;16.924;2023-02-28T05:41:39;27.30;28.30
21801;DHT22;11062;51.164;16.924;2023-02-28T05:44:05;27.30;28.40
21801;DHT22;11062;51.164;16.924;2023-02-28T05:46:30;27.30;28.40
21801;DHT22;11062;51.164;16.924;2023-02-28T05:48:57;27.10;28.20
21801;DHT22;11062;51.164;16.924;2023-02-28T05:51:25;27.10;28.30
21801;DHT22;11062;51.164;16.924;2023-02-28T05:53:51;27.20;28.50
21801;DHT22;11062;51.164;16.924;2023-02-28T05:56:17;27.20;28.50
21801;DHT22;11062;51.164;16.924;2023-02-28T05:58:43;27.20;28.50
21801;DHT22;11062;51.164;16.924;2023-02-28T06:01:37;27.20;28.50
21801;DHT22;11062;51.164;16.924;2023-02-28T06:04:18;27.20;28.40
21801;DHT22;11062;51.164;16.924;2023-02-28T06:06:49;27.20;28.40
21801;DHT22;11062;51.164;16.924;2023-02-28T06:09:18;27.20;28.20
21801;DHT22;11062;51.164;16.924;2023-02-28T06:11:45;27.30;28.10
21801;DHT22;11062;51.164;16.924;2023-02-28T06:14:16;27.30;28.30
21801;DHT22;11062;51.164;16.924;2023-02-28T06:16:47;27.40;28.40
21801;DHT22;11062;51.164;16.924;2023-02-28T06:19:19;27.40;28.50
21801;DHT22;11062;51.164;16.924;2023-02-28T06:21:49;27.40;28.40
21801;DHT22;11062;51.164;16.924;2023-02-28T06:24:16;27.40;28.30
21801;DHT22;11062;51.164;16.924;2023-02-28T06:26:42;27.50;28.40
21801;DHT22;11062;51.164;16.924;2023-02-28T06:29:08;27.40;28.40
21801;DHT22;11062;51.164;16.924;2023-02-28T06:31:34;27.50;28.50
21801;DHT22;11062;51.164;16.924;2023-02-28T06:34:01;27.50;28.40
21801;DHT22;11062;51.164;16.924;2023-02-28T06:36:27;27.60;28.10
21801;DHT22;11062;51.164;16.924;2023-02-28T06:38:53;27.60;28.00
21801;DHT22;11062;51.164;16.924;2023-02-28T06:41:26;27.70;27.90
21801;DHT22;11062;51.164;16.924;2023-02-28T06:43:52;27.70;27.80
21801;DHT22;11062;51.164;16.924;2023-02-28T06:46:19;27.80;27.80
21801;DHT22;11062;51.164;16.924;2023-02-28T06:48:45;27.80;27.70
21801;DHT22;11062;51.164;16.924;2023-02-28T06:51:18;27.80;27.60
21801;DHT22;11062;51.164;16.924;2023-02-28T06:53:46;27.90;27.50
21801;DHT22;11062;51.164;16.924;2023-02-28T06:56:14;27.80;27.50
21801;DHT22;11062;51.164;16.924;2023-02-28T06:58:40;27.90;27.60
21801;DHT22;11062;51.164;16.924;2023-02-28T07:01:07;27.90;27.50
21801;DHT22;11062;51.164;16.924;2023-02-28T07:03:36;27.90;27.40
21801;DHT22;11062;51.164;16.924;2023-02-28T07:06:02;27.90;27.20
21801;DHT22;11062;51.164;16.924;2023-02-28T07:08:30;27.90;27.00
21801;DHT22;11062;51.164;16.924;2023-02-28T07:10:57;27.90;26.80
21801;DHT22;11062;51.164;16.924;2023-02-28T07:13:23;27.90;26.70
21801;DHT22;11062;51.164;16.924;2023-02-28T07:16:01;28.00;26.60
21801;DHT22;11062;51.164;16.924;2023-02-28T07:18:28;28.00;26.40
21801;DHT22;11062;51.164;16.924;2023-02-28T07:20:54;28.00;26.50
21801;DHT22;11062;51.164;16.924;2023-02-28T07:23:21;28.00;26.30
21801;DHT22;11062;51.164;16.924;2023-02-28T07:25:47;28.00;26.10
21801;DHT22;11062;51.164;16.924;2023-02-28T07:28:13;28.00;26.20
21801;DHT22;11062;51.164;16.924;2023-02-28T07:30:40;28.10;26.00
21801;DHT22;11062;51.164;16.924;2023-02-28T07:33:06;28.10;25.80
21801;DHT22;11062;51.164;16.924;2023-02-28T07:35:32;28.10;26.00
21801;DHT22;11062;51.164;16.924;2023-02-28T07:37:59;28.10;25.60
21801;DHT22;11062;51.164;16.924;2023-02-28T07:40:25;28.10;25.30
21801;DHT22;11062;51.164;16.924;2023-02-28T07:42:51;28.10;25.50
21801;DHT22;11062;51.164;16.924;2023-02-28T07:45:17;28.20;25.40
21801;DHT22;11062;51.164;16.924;2023-02-28T07:47:43;28.20;24.90
21801;DHT22;11062;51.164;16.924;2023-02-28T07:50:12;28.20;25.00
21801;DHT22;11062;51.164;16.924;2023-02-28T07:52:39;28.20;24.90
21801;DHT22;11062;51.164;16.924;2023-02-28T07:55:08;28.30;25.00
21801;DHT22;11062;51.164;16.924;2023-02-28T07:57:34;28.20;24.90
21801;DHT22;11062;51.164;16.924;2023-02-28T08:00:01;28.20;24.70
21801;DHT22;11062;51.164;16.924;2023-02-28T08:02:26;28.20;24.60
21801;DHT22;11062;51.164;16.924;2023-02-28T08:04:52;28.20;24.50
21801;DHT22;11062;51.164;16.924;2023-02-28T08:07:18;28.20;24.50
21801;DHT22;11062;51.164;16.924;2023-02-28T08:09:44;28.00;24.50
21801;DHT22;11062;51.164;16.924;2023-02-28T08:12:11;28.00;24.40
21801;DHT22;11062;51.164;16.924;2023-02-28T08:14:37;28.10;24.50
21801;DHT22;11062;51.164;16.924;2023-02-28T08:17:04;28.10;24.40
21801;DHT22;11062;51.164;16.924;2023-02-28T08:19:29;28.10;24.50
21801;DHT22;11062;51.164;16.924;2023-02-28T08:21:56;28.10;24.50
21801;DHT22;11062;51.164;16.924;2023-02-28T08:24:22;28.20;24.60
21801;DHT22;11062;51.164;16.924;2023-02-28T08:26:49;28.20;24.80
21801;DHT22;11062;51.164;16.924;2023-02-28T08:29:15;28.00;24.20
21801;DHT22;11062;51.164;16.924;2023-02-28T08:31:43;28.10;24.30
21801;DHT22;11062;51.164;16.924;2023-02-28T08:34:12;28.10;24.20
21801;DHT22;11062;51.164;16.924;2023-02-28T08:36:38;27.90;24.30
21801;DHT22;11062;51.164;16.924;2023-02-28T08:39:05;28.10;24.10
21801;DHT22;11062;51.164;16.924;2023-02-28T08:41:32;28.20;24.00
21801;DHT22;11062;51.164;16.924;2023-02-28T08:43:58;28.20;24.10
21801;DHT22;11062;51.164;16.924;2023-02-28T08:46:24;28.30;24.20
21801;DHT22;11062;51.164;16.924;2023-02-28T08:48:55;28.30;24.00
21801;DHT22;11062;51.164;16.924;2023-02-28T08:51:22;28.40;24.40
21801;DHT22;11062;51.164;16.924;2023-02-28T08:54:00;28.40;24.50
21801;DHT22;11062;51.164;16.924;2023-02-28T08:56:29;28.60;24.00
21801;DHT22;11062;51.164;16.924;2023-02-28T08:58:56;28.40;23.60
21801;DHT22;11062;51.164;16.924;2023-02-28T09:01:27;28.30;24.50
21801;DHT22;11062;51.164;16.924;2023-02-28T09:03:54;28.10;23.60
21801;DHT22;11062;51.164;16.924;2023-02-28T09:06:23;28.20;24.10
21801;DHT22;11062;51.164;16.924;2023-02-28T09:08:49;28.30;23.80
21801;DHT22;11062;51.164;16.924;2023-02-28T09:11:15;28.40;24.30
21801;DHT22;11062;51.164;16.924;2023-02-28T09:13:41;28.60;24.20
21801;DHT22;11062;51.164;16.924;2023-02-28T09:16:10;28.60;23.50
21801;DHT22;11062;51.164;16.924;2023-02-28T09:18:37;28.70;24.20
21801;DHT22;11062;51.164;16.924;2023-02-28T09:21:05;28.70;24.00
21801;DHT22;11062;51.164;16.924;2023-02-28T09:23:31;28.80;24.00
21801;DHT22;11062;51.164;16.924;2023-02-28T09:25:57;28.80;24.10
21801;DHT22;11062;51.164;16.924;2023-02-28T09:28:23;28.80;23.90
21801;DHT22;11062;51.164;16.924;2023-02-28T09:30:52;29.00;24.00
21801;DHT22;11062;51.164;16.924;2023-02-28T09:33:19;29.10;24.10
21801;DHT22;11062;51.164;16.924;2023-02-28T09:35:49;29.10;23.90
21801;DHT22;11062;51.164;16.924;2023-02-28T09:38:16;29.10;23.90
21801;DHT22;11062;51.164;16.924;2023-02-28T09:43:15;29.20;23.50
21801;DHT22;11062;51.164;16.924;2023-02-28T09:45:47;29.20;23.30
21801;DHT22;11062;51.164;16.924;2023-02-28T09:48:20;29.30;23.70
21801;DHT22;11062;51.164;16.924;2023-02-28T09:50:52;29.30;24.00
21801;DHT22;11062;51.164;16.924;2023-02-28T09:53:26;29.60;23.60
21801;DHT22;11062;51.164;16.924;2023-02-28T09:56:04;29.70;23.80
21801;DHT22;11062;51.164;16.924;2023-02-28T09:58:46;30.10;23.50
21801;DHT22;11062;51.164;16.924;2023-02-28T10:09:55;30.90;23.50
21801;DHT22;11062;51.164;16.924;2023-02-28T10:12:24;31.20;23.20
21801;DHT22;11062;51.164;16.924;2023-02-28T10:14:52;31.20;23.20
21801;DHT22;11062;51.164;16.924;2023-02-28T10:17:26;31.20;23.10
21801;DHT22;11062;51.164;16.924;2023-02-28T10:23:02;31.30;23.00
21801;DHT22;11062;51.164;16.924;2023-02-28T10:25:35;31.20;23.10
21801;DHT22;11062;51.164;16.924;2023-02-28T10:28:17;31.30;22.90
21801;DHT22;11062;51.164;16.924;2023-02-28T10:30:50;31.50;23.00
21801;DHT22;11062;51.164;16.924;2023-02-28T10:33:25;31.50;23.40
21801;DHT22;11062;51.164;16.924;2023-02-28T10:35:53;31.50;23.50
21801;DHT22;11062;51.164;16.924;2023-02-28T10:38:25;31.50;23.30
21801;DHT22;11062;51.164;16.924;2023-02-28T10:40:51;31.50;23.20
21801;DHT22;11062;51.164;16.924;2023-02-28T10:43:28;31.20;22.90
21801;DHT22;11062;51.164;16.924;2023-02-28T10:48:47;31.50;23.80
21801;DHT22;11062;51.164;16.924;2023-02-28T10:51:18;31.50;23.20
21801;DHT22;11062;51.164;16.924;2023-02-28T10:53:51;31.50;23.20
21801;DHT22;11062;51.164;16.924;2023-02-28T10:56:24;31.80;23.20
21801;DHT22;11062;51.164;16.924;2023-02-28T10:59:08;31.90;23.00
21801;DHT22;11062;51.164;16.924;2023-02-28T11:01:46;31.90;23.20
21801;DHT22;11062;51.164;16.924;2023-02-28T11:04:31;31.80;22.90
21801;DHT22;11062;51.164;16.924;2023-02-28T11:07:00;32.20;23.00
21801;DHT22;11062;51.164;16.924;2023-02-28T11:09:38;32.40;22.70
21801;DHT22;11062;51.164;16.924;2023-02-28T11:12:07;32.60;22.70
21801;DHT22;11062;51.164;16.924;2023-02-28T11:14:54;32.80;22.80
21801;DHT22;11062;51.164;16.924;2023-02-28T11:17:24;32.80;23.00
21801;DHT22;11062;51.164;16.924;2023-02-28T11:19:53;33.00;22.80
21801;DHT22;11062;51.164;16.924;2023-02-28T11:22:23;33.20;22.60
21801;DHT22;11062;51.164;16.924;2023-02-28T11:25:02;33.20;22.50
21801;DHT22;11062;51.164;16.924;2023-02-28T11:27:51;33.50;22.70
21801;DHT22;11062;51.164;16.924;2023-02-28T11:30:34;33.60;22.50
21801;DHT22;11062;51.164;16.924;2023-02-28T11:33:10;33.70;22.10
21801;DHT22;11062;51.164;16.924;2023-02-28T11:35:44;33.90;22.30
21801;DHT22;11062;51.164;16.924;2023-02-28T11:38:12;34.20;21.50
21801;DHT22;11062;51.164;16.924;2023-02-28T11:43:27;34.70;22.30
21801;DHT22;11062;51.164;16.924;2023-02-28T11:46:11;34.90;22.20
21801;DHT22;11062;51.164;16.924;2023-02-28T11:48:49;35.10;21.90
21801;DHT22;11062;51.164;16.924;2023-02-28T11:51:34;35.20;21.80
21801;DHT22;11062;51.164;16.924;2023-02-28T11:56:58;34.90;21.60
21801;DHT22;11062;51.164;16.924;2023-02-28T12:11:02;36.20;21.30
21801;DHT22;11062;51.164;16.924;2023-02-28T12:22:31;36.70;21.80
21801;DHT22;11062;51.164;16.924;2023-02-28T12:27:41;37.00;21.50
21801;DHT22;11062;51.164;16.924;2023-02-28T12:30:33;37.10;21.70
21801;DHT22;11062;51.164;16.924;2023-02-28T12:33:09;37.30;21.30
21801;DHT22;11062;51.164;16.924;2023-02-28T12:35:48;37.30;21.20
21801;DHT22;11062;51.164;16.924;2023-02-28T12:38:21;37.20;21.20
21801;DHT22;11062;51.164;16.924;2023-02-28T12:41:00;37.30;21.20
21801;DHT22;11062;51.164;16.924;2023-02-28T12:43:36;37.20;21.40
21801;DHT22;11062;51.164;16.924;2023-02-28T12:46:07;37.10;21.10
21801;DHT22;11062;51.164;16.924;2023-02-28T12:48:43;36.80;21.20
21801;DHT22;11062;51.164;16.924;2023-02-28T12:51:15;36.90;21.50
21801;DHT22;11062;51.164;16.924;2023-02-28T12:54:14;36.90;21.40
21801;DHT22;11062;51.164;16.924;2023-02-28T12:57:09;37.00;21.50
21801;DHT22;11062;51.164;16.924;2023-02-28T13:00:00;37.00;21.30
21801;DHT22;11062;51.164;16.924;2023-02-28T13:10:56;36.70;20.80
21801;DHT22;11062;51.164;16.924;2023-02-28T13:13:29;36.50;20.80
21801;DHT22;11062;51.164;16.924;2023-02-28T13:16:06;36.30;20.60
21801;DHT22;11062;51.164;16.924;2023-02-28T13:18:44;36.50;21.00
21801;DHT22;11062;51.164;16.924;2023-02-28T13:21:24;36.70;21.00
21801;DHT22;11062;51.164;16.924;2023-02-28T13:34:37;37.30;21.10
21801;DHT22;11062;51.164;16.924;2023-02-28T13:42:49;36.70;21.10
21801;DHT22;11062;51.164;16.924;2023-02-28T13:45:28;36.40;21.00
21801;DHT22;11062;51.164;16.924;2023-02-28T13:48:02;36.50;21.00
21801;DHT22;11062;51.164;16.924;2023-02-28T13:50:38;36.60;21.00
21801;DHT22;11062;51.164;16.924;2023-02-28T13:56:23;36.90;21.10
21801;DHT22;11062;51.164;16.924;2023-02-28T14:07:23;37.40;20.70
21801;DHT22;11062;51.164;16.924;2023-02-28T14:10:03;37.20;20.50
21801;DHT22;11062;51.164;16.924;2023-02-28T14:20:58;37.20;20.90
21801;DHT22;11062;51.164;16.924;2023-02-28T14:23:52;37.10;20.80
21801;DHT22;11062;51.164;16.924;2023-02-28T14:31:55;37.10;20.80
21801;DHT22;11062;51.164;16.924;2023-02-28T14:34:43;37.20;20.50
21801;DHT22;11062;51.164;16.924;2023-02-28T14:37:16;37.30;20.60
21801;DHT22;11062;51.164;16.924;2023-02-28T14:39:45;37.20;20.60
21801;DHT22;11062;51.164;16.924;2023-02-28T14:42:35;37.20;20.60
21801;DHT22;11062;51.164;16.924;2023-02-28T14:45:04;37.30;20.70
21801;DHT22;11062;51.164;16.924;2023-02-28T14:47:34;37.20;20.70
21801;DHT22;11062;51.164;16.924;2023-02-28T14:50:02;37.10;20.50
21801;DHT22;11062;51.164;16.924;2023-02-28T14:52:31;37.10;20.60
21801;DHT22;11062;51.164;16.924;2023-02-28T14:55:05;37.10;20.60
21801;DHT22;11062;51.164;16.924;2023-02-28T14:57:38;37.00;20.50
21801;DHT22;11062;51.164;16.924;2023-02-28T15:00:18;36.90;20.60
21801;DHT22;11062;51.164;16.924;2023-02-28T15:02:46;36.80;20.60
21801;DHT22;11062;51.164;16.924;2023-02-28T15:07:44;36.60;20.70
21801;DHT22;11062;51.164;16.924;2023-02-28T15:10:59;36.50;20.70
21801;DHT22;11062;51.164;16.924;2023-02-28T15:13:38;36.30;20.90
21801;DHT22;11062;51.164;16.924;2023-02-28T15:16:29;36.10;21.20
21801;DHT22;11062;51.164;16.924;2023-02-28T15:21:59;35.60;21.20
21801;DHT22;11062;51.164;16.924;2023-02-28T15:24:36;35.40;21.30
21801;DHT22;11062;51.164;16.924;2023-02-28T15:27:11;35.30;21.30
21801;DHT22;11062;51.164;16.924;2023-02-28T15:29:48;35.10;21.30
21801;DHT22;11062;51.164;16.924;2023-02-28T15:32:37;34.80;21.60
21801;DHT22;11062;51.164;16.924;2023-02-28T15:35:26;34.60;21.50
21801;DHT22;11062;51.164;16.924;2023-02-28T15:37:55;34.40;21.80
21801;DHT22;11062;51.164;16.924;2023-02-28T15:40:40;34.20;21.80
21801;DHT22;11062;51.164;16.924;2023-02-28T15:43:16;34.10;21.80
21801;DHT22;11062;51.164;16.924;2023-02-28T15:46:03;33.80;21.90
21801;DHT22;11062;51.164;16.924;2023-02-28T15:48:51;33.70;22.00
21801;DHT22;11062;51.164;16.924;2023-02-28T15:54:22;33.30;22.20
21801;DHT22;11062;51.164;16.924;2023-02-28T15:56:55;33.00;22.30
21801;DHT22;11062;51.164;16.924;2023-02-28T15:59:24;33.00;22.40
21801;DHT22;11062;51.164;16.924;2023-02-28T16:04:36;32.70;22.40
21801;DHT22;11062;51.164;16.924;2023-02-28T16:07:05;32.50;22.50
21801;DHT22;11062;51.164;16.924;2023-02-28T16:09:32;32.40;23.00
21801;DHT22;11062;51.164;16.924;2023-02-28T16:12:02;32.20;22.60
21801;DHT22;11062;51.164;16.924;2023-02-28T16:14:29;32.10;22.70
21801;DHT22;11062;51.164;16.924;2023-02-28T16:17:10;31.90;22.70
21801;DHT22;11062;51.164;16.924;2023-02-28T16:19:40;31.90;22.90
21801;DHT22;11062;51.164;16.924;2023-02-28T16:22:07;31.60;22.90
21801;DHT22;11062;51.164;16.924;2023-02-28T16:24:33;31.50;22.90
21801;DHT22;11062;51.164;16.924;2023-02-28T16:27:00;31.40;23.00
21801;DHT22;11062;51.164;16.924;2023-02-28T16:29:32;31.30;23.10
21801;DHT22;11062;51.164;16.924;2023-02-28T16:32:00;31.30;23.10
21801;DHT22;11062;51.164;16.924;2023-02-28T16:34:30;31.10;23.20
21801;DHT22;11062;51.164;16.924;2023-02-28T16:36:56;31.00;23.20
21801;DHT22;11062;51.164;16.924;2023-02-28T16:39:21;30.90;23.30
21801;DHT22;11062;51.164;16.924;2023-02-28T16:41:49;30.80;23.30
21801;DHT22;11062;51.164;16.924;2023-02-28T16:44:28;30.80;23.50
21801;DHT22;11062;51.164;16.924;2023-02-28T16:46:55;30.70;23.40
21801;DHT22;11062;51.164;16.924;2023-02-28T16:49:20;30.60;23.50
21801;DHT22;11062;51.164;16.924;2023-02-28T16:51:46;30.50;23.50
21801;DHT22;11062;51.164;16.924;2023-02-28T16:54:15;30.50;23.60
21801;DHT22;11062;51.164;16.924;2023-02-28T16:56:44;30.40;23.60
21801;DHT22;11062;51.164;16.924;2023-02-28T16:59:10;30.40;23.70
21801;DHT22;11062;51.164;16.924;2023-02-28T17:01:37;30.40;23.90
21801;DHT22;11062;51.164;16.924;2023-02-28T17:04:02;30.30;24.20
21801;DHT22;11062;51.164;16.924;2023-02-28T17:06:30;30.20;24.20
21801;DHT22;11062;51.164;16.924;2023-02-28T17:09:02;30.10;24.20
21801;DHT22;11062;51.164;16.924;2023-02-28T17:11:30;30.10;24.60
21801;DHT22;11062;51.164;16.924;2023-02-28T17:13:56;29.90;24.40
21801;DHT22;11062;51.164;16.924;2023-02-28T17:16:28;29.80;24.40
21801;DHT22;11062;51.164;16.924;2023-02-28T17:19:00;29.70;24.40
21801;DHT22;11062;51.164;16.924;2023-02-28T17:21:27;29.60;24.40
21801;DHT22;11062;51.164;16.924;2023-02-28T17:23:53;29.50;24.40
21801;DHT22;11062;51.164;16.924;2023-02-28T17:26:20;29.50;24.60
21801;DHT22;11062;51.164;16.924;2023-02-28T17:28:47;29.40;24.70
21801;DHT22;11062;51.164;16.924;2023-02-28T17:31:16;29.30;24.70
21801;DHT22;11062;51.164;16.924;2023-02-28T17:33:45;29.20;24.80
21801;DHT22;11062;51.164;16.924;2023-02-28T17:36:22;29.20;24.80
21801;DHT22;11062;51.164;16.924;2023-02-28T17:38:49;29.10;24.90
21801;DHT22;11062;51.164;16.924;2023-02-28T17:41:17;29.00;24.90
21801;DHT22;11062;51.164;16.924;2023-02-28T17:43:43;29.00;25.30